メインページ
METAR-TAF:

METAR-TAF

空港 :

神戸空港

神戸, 日本

緯度: 34-37-58N, 経度: 135-13-26E, 海抜: 7m

現時点の気象観測

当レポートは1時間11分前の12:00(UTC)に作成
北東の風 11kt
気温 20°C
湿度 60%
気圧 1010 hPa
視程10km以上
高度2500ftの雲はほとんどない
高度12000ftの雲は散在している
高度15000ftの千切れ雲あり

METAR: RJBE 161200Z 04011KT 9999 FEW025 SCT120 BKN150 20/12 Q1010

時間: 22:11 (13:11 UTC)


TAF: 見つかりません

4,000以上の空港の気象観測と天気予報(METAR報とTAF報)

利用可能な観測所は地図上に黄色い丸と赤い丸で示す。

丸の上にカーソルを重ねると観測所名を参照できる。

次にクリックすると気象観測と天気予報を参照できる。

マップの切り替え:黒色「×」印の緑ボタンをクリックして拡大、「-」印の緑ボタンをクリックして縮小、緑色の三角印をクリックして隣りの地図に切り替え


METAR-TAF: